Aérodrome :
LOGIN :

S'inscrire | Disclaimer

   EN    FR    IT 

 










Légende :    VFR   VFR Marginal   IFR   IFR Intensif   IFR Très Intensif
Visi : 
Plafond : 
>= 8 km
>= 3000ft
5 à 8 km
1000 à 3000 ft
1500m à 5 km
500 à 1000 ft
800 à 1500m
200 à 500 ft
< 800m
< 200 ft
Symboles :   Orages  Brouillard  Fortes neiges  Fortes précipitations  Vent > 20 kt
SIGMETs :   Divers  Orages  Givrage  Turbulence  Onde Orograph.  Cendres Volcan.






- Altitude de l'aérodrome : 239 ft
- Code IATA : VRN


LIPX - Villafranca Int. Verona

DERNIER METAR :
  • 110420Z AUTO 12006KT 080V150 9999 RA OVC074/// 16/09 Q1013 REDZ

METARs EXPIRÉS :
  • 110350Z AUTO 10004KT 060V130 9999 -RA FEW084/// OVC093/// 17/07 Q1013
  • 110320Z AUTO 08007KT 060V120 9999 -RA OVC082/// 17/07 Q1012
  • 110250Z AUTO 09009KT 9999 -RA OVC084/// 17/07 Q1012
  • 110220Z AUTO 09010KT 9999 -RA BKN095/// 17/07 Q1012
  • 110150Z AUTO 11009KT 9999 -RA FEW049/// BKN100/// 17/05 Q1013

TAF TAF LIPX
Valide du 11 à 03h jusqu'au 11 à 12h UTC


110200Z 1103/1112 09010KT 9999 FEW050
TEMPO 1103/1112 SHRA



MET'MAP, la Météo Aéronautique d'un coup d'oeil ! - Copyright ORBIFLY Décembre 2007 - Disclaimer

ORBIFLY MET'MAP TEAM :

Programmation & Développement : Alexandra Zaïnal
Sur une idée originale de : Baudouin d'Aumeries
Assistance à la programmation : Marc-Olivier Méhu
Soutien technique & logistique : Manuel Goepfert

Contact : metmap@orbifly.com




SOURCES & CREDITS :

   NOAA